createdAt,value
2022-08-10T00:03:10.210Z,28.37
2022-08-10T00:08:10.400Z,28.35
2022-08-10T00:13:09.549Z,28.21
2022-08-10T00:18:08.312Z,28.19
2022-08-10T00:23:07.114Z,28.06
2022-08-10T00:28:07.400Z,27.86
2022-08-10T00:33:06.283Z,27.87
2022-08-10T00:38:05.798Z,27.73
2022-08-10T00:43:06.279Z,27.81
2022-08-10T00:48:05.778Z,27.75
2022-08-10T00:53:04.937Z,27.66
2022-08-10T00:58:04.110Z,27.57
2022-08-10T01:03:04.426Z,27.53
2022-08-10T01:08:20.901Z,27.54
2022-08-10T01:13:25.144Z,27.61
2022-08-10T01:18:37.806Z,27.69
2022-08-10T01:23:59.129Z,27.77
2022-08-10T01:29:13.508Z,27.81
2022-08-10T01:34:20.455Z,27.69
2022-08-10T01:39:25.453Z,27.67
2022-08-10T01:44:30.681Z,27.72
2022-08-10T01:49:32.843Z,27.59
2022-08-10T01:54:32.476Z,27.71
2022-08-10T01:59:35.205Z,27.78
2022-08-10T02:04:38.445Z,27.65
2022-08-10T02:09:40.487Z,27.73
2022-08-10T02:14:46.274Z,27.77
2022-08-10T02:19:48.491Z,27.79
2022-08-10T02:24:48.499Z,27.76
2022-08-10T02:29:49.062Z,27.77
2022-08-10T02:34:51.589Z,27.86
2022-08-10T02:39:50.560Z,27.90
2022-08-10T02:45:22.446Z,27.90
2022-08-10T02:50:23.942Z,27.78
2022-08-10T02:55:29.105Z,27.77
2022-08-10T03:00:32.517Z,27.79
2022-08-10T03:05:33.618Z,27.83
2022-08-10T03:10:36.494Z,27.74
2022-08-10T03:15:39.931Z,27.52
2022-08-10T03:20:42.945Z,27.56
2022-08-10T03:25:53.647Z,27.50
2022-08-10T03:30:54.746Z,27.51
2022-08-10T03:36:44.155Z,27.59
2022-08-10T03:41:16.731Z,27.39
2022-08-10T03:46:19.623Z,27.36
2022-08-10T03:51:20.586Z,27.48
2022-08-10T03:56:29.093Z,27.65
2022-08-10T04:02:41.419Z,27.77
2022-08-10T04:06:54.514Z,27.81
2022-08-10T04:11:54.580Z,27.89
2022-08-10T04:16:53.463Z,27.99
2022-08-10T04:22:01.396Z,28.05
2022-08-10T04:27:00.264Z,27.95
2022-08-10T04:32:01.019Z,27.85
2022-08-10T04:37:08.762Z,28.02
2022-08-10T04:42:08.718Z,27.81
2022-08-10T04:47:08.032Z,27.80
2022-08-10T04:52:08.374Z,27.64
2022-08-10T04:57:07.419Z,27.62
2022-08-10T05:02:22.003Z,27.47
2022-08-10T05:07:26.583Z,27.66
2022-08-10T05:12:25.562Z,27.73
2022-08-10T05:17:25.074Z,27.72
2022-08-10T05:22:24.056Z,27.72
2022-08-10T05:27:24.300Z,27.54
2022-08-10T05:32:23.206Z,27.72
2022-08-10T05:38:09.731Z,27.79
2022-08-10T05:42:43.330Z,27.59
2022-08-10T05:48:41.597Z,27.54
2022-08-10T05:53:05.803Z,27.67
2022-08-10T05:58:21.509Z,28.07
2022-08-10T06:03:25.118Z,28.09
2022-08-10T06:08:26.923Z,28.40
2022-08-10T06:13:59.555Z,28.70
2022-08-10T06:19:03.377Z,28.56
2022-08-10T06:24:03.378Z,28.67
2022-08-10T06:29:09.382Z,28.63
2022-08-10T06:34:11.036Z,29.10
2022-08-10T06:39:31.769Z,29.33
2022-08-10T06:44:41.605Z,29.41
2022-08-10T06:49:43.995Z,29.55
2022-08-10T06:54:45.896Z,29.52
2022-08-10T06:59:49.042Z,29.73
2022-08-10T07:04:57.524Z,29.84
2022-08-10T07:09:57.831Z,29.75
2022-08-10T07:15:09.657Z,29.68
2022-08-10T07:20:15.140Z,29.72
2022-08-10T07:25:17.303Z,29.65
2022-08-10T07:30:17.810Z,29.80
2022-08-10T07:35:24.012Z,29.86
2022-08-10T07:40:26.018Z,29.71
2022-08-10T07:45:29.839Z,30.01
2022-08-10T07:50:33.117Z,29.53
2022-08-10T07:56:04.912Z,29.68
2022-08-10T08:01:07.602Z,29.66
2022-08-10T08:06:11.581Z,29.89
2022-08-10T08:11:26.255Z,29.87
2022-08-10T08:16:27.885Z,29.61
2022-08-10T08:24:30.227Z,29.59
2022-08-10T08:26:52.514Z,29.49
2022-08-10T08:32:02.472Z,29.51
2022-08-10T08:37:05.187Z,29.77
2022-08-10T08:42:23.240Z,30.10
2022-08-10T08:48:03.714Z,30.63
2022-08-10T08:53:21.996Z,31.53
2022-08-10T08:58:50.384Z,31.25
2022-08-10T09:04:19.854Z,31.61
2022-08-10T09:09:33.633Z,31.92
2022-08-10T09:14:44.348Z,32.11
2022-08-10T09:20:05.192Z,31.94
2022-08-10T09:25:20.296Z,31.79
2022-08-10T09:30:36.953Z,32.30
2022-08-10T09:36:26.999Z,32.93
2022-08-10T09:41:27.570Z,33.44
2022-08-10T09:46:41.128Z,34.65
2022-08-10T09:51:51.669Z,35.23
2022-08-10T09:57:17.840Z,36.10
2022-08-10T10:02:27.838Z,37.31
2022-08-10T10:07:29.873Z,37.20
2022-08-10T10:12:38.201Z,37.93
2022-08-10T10:17:45.044Z,38.16
2022-08-10T10:22:58.833Z,37.69
2022-08-10T10:28:13.475Z,38.33
2022-08-10T10:33:16.644Z,38.46
2022-08-10T10:38:18.497Z,39.80
2022-08-10T10:43:30.809Z,40.90
2022-08-10T10:48:39.836Z,41.89
2022-08-10T10:53:45.739Z,41.93
2022-08-10T10:58:58.709Z,41.92
2022-08-10T11:04:12.081Z,42.38
2022-08-10T11:10:04.683Z,41.62
2022-08-10T11:14:42.658Z,41.75
2022-08-10T11:20:01.326Z,41.96
2022-08-10T11:25:12.974Z,42.72
2022-08-10T11:30:16.299Z,43.32
2022-08-10T11:35:29.499Z,44.11
2022-08-10T11:40:38.768Z,43.79
2022-08-10T11:45:52.181Z,44.49
2022-08-10T11:50:58.983Z,44.99
2022-08-10T11:56:03.615Z,44.59
2022-08-10T12:01:11.867Z,44.72
2022-08-10T12:06:14.826Z,45.29
2022-08-10T12:11:24.707Z,45.46
2022-08-10T12:16:29.829Z,45.08
2022-08-10T12:21:36.969Z,45.23
2022-08-10T12:26:43.678Z,43.51
2022-08-10T12:31:47.674Z,43.66
2022-08-10T12:36:55.652Z,42.74
2022-08-10T12:42:02.175Z,42.44
2022-08-10T12:47:13.996Z,42.72
2022-08-10T12:52:21.095Z,42.81
2022-08-10T12:57:25.839Z,43.17
2022-08-10T13:02:27.743Z,43.12
2022-08-10T13:08:24.579Z,43.53
2022-08-10T13:12:56.478Z,42.95
2022-08-10T13:18:00.724Z,42.31
2022-08-10T13:23:01.555Z,41.24
2022-08-10T13:28:37.573Z,42.14
2022-08-10T13:34:39.999Z,42.46
2022-08-10T13:38:50.007Z,42.31
2022-08-10T13:43:53.838Z,42.73
2022-08-10T13:48:54.323Z,43.03
2022-08-10T13:53:58.459Z,43.57
2022-08-10T13:59:00.058Z,43.84
2022-08-10T14:04:02.378Z,43.56
2022-08-10T14:09:06.187Z,42.82
2022-08-10T14:14:11.183Z,42.42
2022-08-10T14:19:15.753Z,41.99
2022-08-10T14:24:22.760Z,41.66
2022-08-10T14:29:25.119Z,41.03
2022-08-10T14:36:05.018Z,40.11
2022-08-10T14:39:52.558Z,39.77
2022-08-10T14:44:56.782Z,39.67
2022-08-10T14:49:58.557Z,38.23
2022-08-10T14:55:19.146Z,37.73
2022-08-10T15:00:31.675Z,36.99
2022-08-10T15:05:41.766Z,36.38
2022-08-10T15:10:44.935Z,36.19
2022-08-10T15:16:12.521Z,35.62
2022-08-10T15:21:17.292Z,34.99
2022-08-10T15:26:26.647Z,34.87
2022-08-10T15:31:29.313Z,34.33
2022-08-10T15:37:02.215Z,33.84
2022-08-10T15:42:11.612Z,33.76
2022-08-10T15:47:26.704Z,33.45
2022-08-10T15:52:39.300Z,33.31
2022-08-10T15:58:03.024Z,33.06
2022-08-10T16:03:13.170Z,32.77
2022-08-10T16:08:17.756Z,32.36
2022-08-10T16:13:50.555Z,31.94
2022-08-10T16:18:55.750Z,31.34
2022-08-10T16:24:12.712Z,31.13
2022-08-10T16:29:18.806Z,30.88
2022-08-10T16:34:21.699Z,30.79
2022-08-10T16:40:00.225Z,30.65
2022-08-10T16:44:51.347Z,30.61
2022-08-10T16:49:54.038Z,30.61
2022-08-10T16:54:54.906Z,30.42
2022-08-10T16:59:54.696Z,29.83
2022-08-10T17:04:56.959Z,30.07
2022-08-10T17:09:57.906Z,30.06
2022-08-10T17:14:59.780Z,29.78
2022-08-10T17:20:31.095Z,29.69
2022-08-10T17:25:48.586Z,29.27
2022-08-10T17:30:58.152Z,29.18
2022-08-10T17:36:05.018Z,29.02
2022-08-10T17:41:10.940Z,28.67
2022-08-10T17:46:11.940Z,28.43
2022-08-10T17:51:16.210Z,28.56
2022-08-10T17:56:17.046Z,28.51
2022-08-10T18:01:40.365Z,28.37
2022-08-10T18:06:42.445Z,28.38
2022-08-10T18:11:44.831Z,28.40
2022-08-10T18:16:45.170Z,28.14
2022-08-10T18:21:49.243Z,27.93
2022-08-10T18:26:52.007Z,27.67
2022-08-10T18:31:57.311Z,27.58
2022-08-10T18:36:58.482Z,27.55
2022-08-10T18:42:05.544Z,27.18
2022-08-10T18:47:14.072Z,27.11
2022-08-10T18:52:17.135Z,27.24
2022-08-10T18:57:30.722Z,27.04
2022-08-10T19:02:53.917Z,26.96
2022-08-10T19:08:30.823Z,26.81
2022-08-10T19:13:35.060Z,26.88
2022-08-10T19:18:38.473Z,26.80
2022-08-10T19:24:01.358Z,26.65
2022-08-10T19:29:08.837Z,26.47
2022-08-10T19:34:24.488Z,26.26
2022-08-10T19:39:51.043Z,26.10
2022-08-10T19:44:59.096Z,26.05
2022-08-10T19:50:03.512Z,25.79
2022-08-10T19:55:15.160Z,25.62
2022-08-10T20:00:21.746Z,25.63
2022-08-10T20:05:31.282Z,25.56
2022-08-10T20:10:38.437Z,25.69
2022-08-10T20:15:42.611Z,25.52
2022-08-10T20:20:49.521Z,25.67
2022-08-10T20:25:56.231Z,25.63
2022-08-10T20:31:03.877Z,25.24
2022-08-10T20:36:06.024Z,25.34
2022-08-10T20:41:17.654Z,25.38
2022-08-10T20:46:27.754Z,25.32
2022-08-10T20:51:58.529Z,25.24
2022-08-10T20:57:55.192Z,25.28
2022-08-10T21:02:49.102Z,25.34
2022-08-10T21:08:01.648Z,25.35
2022-08-10T21:13:21.496Z,25.35
2022-08-10T21:18:30.963Z,25.36
2022-08-10T21:23:32.670Z,25.19
2022-08-10T21:28:51.731Z,25.18
2022-08-10T21:34:04.535Z,25.28
2022-08-10T21:39:13.795Z,25.10
2022-08-10T21:44:42.841Z,24.94
2022-08-10T21:50:11.066Z,24.82
2022-08-10T21:55:57.118Z,24.78
2022-08-10T22:01:21.586Z,24.79
2022-08-10T22:07:00.824Z,24.78
2022-08-10T22:12:24.896Z,24.74
2022-08-10T22:18:10.026Z,24.68
2022-08-10T22:24:16.597Z,24.61
2022-08-10T22:29:42.292Z,24.53
2022-08-10T22:35:15.645Z,24.62
2022-08-10T22:40:36.938Z,24.56
2022-08-10T22:45:54.820Z,24.60
2022-08-10T22:51:02.378Z,24.64
2022-08-10T22:56:18.847Z,24.60
2022-08-10T23:01:40.609Z,24.59
2022-08-10T23:06:42.100Z,24.47
2022-08-10T23:11:44.085Z,24.61
2022-08-10T23:17:03.105Z,24.61
2022-08-10T23:22:08.444Z,24.57
2022-08-10T23:27:13.273Z,24.52
2022-08-10T23:32:32.817Z,24.54
2022-08-10T23:37:36.260Z,24.57
2022-08-10T23:42:39.239Z,24.56
2022-08-10T23:47:42.870Z,24.58
2022-08-10T23:52:52.625Z,24.55
2022-08-10T23:57:55.483Z,24.57
